Terminal Aerodrome Forecast
Issued by NWS Pittsburgh, PA

Current Version | Previous Version | Text Only | Print | Product List | Glossary Off
Versions: 1 2 3 4 5 6 7 8 9 10 11 12 13 14 15 16 17 18 19 20 21 22 23 24 25 26 27

000
FTUS41 KPBZ 010520
TAFPIT
TAF
KPIT 010520Z 0106/0212 VRB05KT 6SM -RA OVC060
      TEMPO 0106/0110 4SM -RA BR BKN008
     FM011000 35006KT P6SM BKN100
     FM011700 01006KT P6SM SCT050
     FM020100 VRB05KT P6SM SKC=

USA.gov is the U.S. government's official web portal to all federal, state and local government web resources and services.